createdAt,value
2017-12-29T00:00:19.283Z,74.45
2017-12-29T00:01:19.019Z,74.41
2017-12-29T00:02:19.304Z,74.35
2017-12-29T00:03:19.038Z,74.32
2017-12-29T00:04:19.381Z,74.41
2017-12-29T00:05:19.336Z,74.51
2017-12-29T00:06:19.358Z,74.6
2017-12-29T00:07:19.081Z,74.69
2017-12-29T00:08:19.089Z,74.22
2017-12-29T00:09:19.373Z,74.69
2017-12-29T00:10:19.110Z,74.41
2017-12-29T00:11:19.395Z,74.07
2017-12-29T00:12:19.404Z,74.07
2017-12-29T00:13:19.140Z,74.07
2017-12-29T00:14:19.427Z,74.13
2017-12-29T00:15:19.161Z,73.84
2017-12-29T00:16:19.173Z,73.75
2017-12-29T00:17:19.181Z,73.75
2017-12-29T00:18:19.481Z,73.56
2017-12-29T00:19:19.525Z,73.94
2017-12-29T00:20:19.215Z,74.03
2017-12-29T00:21:19.505Z,73.84
2017-12-29T00:22:19.234Z,73.84
2017-12-29T00:23:19.517Z,73.84
2017-12-29T00:24:19.527Z,73.84
2017-12-29T00:25:19.286Z,73.37
2017-12-29T00:26:19.272Z,73.37
2017-12-29T00:27:19.557Z,73.27
2017-12-29T00:28:19.574Z,73.46
2017-12-29T00:29:19.578Z,73.27
2017-12-29T00:30:19.589Z,73.56
2017-12-29T00:31:19.599Z,73.65
2017-12-29T00:32:19.608Z,73.27
2017-12-29T00:33:19.342Z,73.37
2017-12-29T00:34:19.351Z,73.27
2017-12-29T00:35:19.363Z,73.27
2017-12-29T00:36:19.647Z,74.13
2017-12-29T00:37:19.385Z,73.84
2017-12-29T00:38:19.392Z,73.27
2017-12-29T00:39:19.678Z,73.37
2017-12-29T00:40:19.689Z,73.56
2017-12-29T00:41:19.698Z,73.84
2017-12-29T00:42:19.433Z,73.27
2017-12-29T00:43:19.446Z,73.27
2017-12-29T00:44:19.732Z,73.37
2017-12-29T00:45:19.465Z,73.08
2017-12-29T00:46:19.755Z,73.37
2017-12-29T00:47:19.761Z,73.56
2017-12-29T00:48:19.558Z,73.46
2017-12-29T00:49:19.505Z,73.56
2017-12-29T00:50:19.791Z,73.27
2017-12-29T00:51:19.801Z,73.37
2017-12-29T00:52:19.810Z,73.37
2017-12-29T00:53:19.546Z,73.37
2017-12-29T00:54:19.829Z,73.65
2017-12-29T00:55:19.840Z,73.84
2017-12-29T00:56:19.851Z,74.13
2017-12-29T00:57:19.865Z,73.75
2017-12-29T00:58:19.877Z,73.75
2017-12-29T00:59:19.880Z,73.94
2017-12-29T01:00:19.893Z,73.84
2017-12-29T01:01:19.904Z,73.84
2017-12-29T01:02:19.912Z,73.94
2017-12-29T01:03:19.921Z,74.41
2017-12-29T01:04:19.660Z,74.13
2017-12-29T01:05:19.946Z,74.03
2017-12-29T01:06:19.951Z,74.03
2017-12-29T01:07:19.965Z,73.84
2017-12-29T01:08:19.700Z,74.41
2017-12-29T01:09:19.705Z,74.6
2017-12-29T01:10:19.993Z,74.41
2017-12-29T01:11:20.002Z,74.51
2017-12-29T01:12:19.741Z,73.94
2017-12-29T01:13:20.029Z,73.84
2017-12-29T01:14:20.037Z,74.51
2017-12-29T01:15:20.042Z,74.13
2017-12-29T01:16:20.052Z,74.51
2017-12-29T01:17:20.061Z,74.03
2017-12-29T01:18:19.796Z,74.03
2017-12-29T01:19:19.806Z,73.94
2017-12-29T01:20:19.819Z,74.03
2017-12-29T01:21:20.103Z,73.94
2017-12-29T01:22:20.112Z,74.41
2017-12-29T01:23:20.126Z,74.51
2017-12-29T01:24:20.129Z,74.41
2017-12-29T01:25:20.144Z,74.32
2017-12-29T01:26:19.877Z,74.13
2017-12-29T01:27:20.161Z,73.84
2017-12-29T01:28:19.898Z,74.13
2017-12-29T01:29:20.181Z,74.13
2017-12-29T01:30:19.920Z,74.03
2017-12-29T01:31:20.205Z,74.22
2017-12-29T01:32:19.939Z,74.51
2017-12-29T01:33:19.946Z,74.88
2017-12-29T01:34:19.958Z,74.98
2017-12-29T01:35:20.247Z,75.36
2017-12-29T01:36:19.978Z,75.07
2017-12-29T01:37:19.988Z,75.26
2017-12-29T01:38:20.272Z,75.84
2017-12-29T01:39:20.009Z,75.84
2017-12-29T01:40:20.293Z,75.68
2017-12-29T01:41:20.300Z,75.93
2017-12-29T01:42:20.037Z,75.84
2017-12-29T01:43:20.047Z,75.96
2017-12-29T01:44:20.336Z,75.93
2017-12-29T01:45:20.341Z,76.06
2017-12-29T01:46:20.353Z,75.74
2017-12-29T01:47:20.404Z,76.15
2017-12-29T01:48:20.374Z,76.15
2017-12-29T01:49:20.107Z,75.96
2017-12-29T01:50:20.393Z,76.06
2017-12-29T01:51:20.401Z,75.68
2017-12-29T01:52:20.420Z,75.78
2017-12-29T01:53:20.436Z,75.78
2017-12-29T01:54:20.158Z,76.06
2017-12-29T01:55:20.445Z,75.78
2017-12-29T01:56:20.452Z,75.68
2017-12-29T01:57:20.468Z,75.78
2017-12-29T01:58:20.199Z,76.15
2017-12-29T01:59:20.207Z,75.59
2017-12-29T02:00:20.220Z,75.49
2017-12-29T02:01:20.503Z,75.4
2017-12-29T02:02:20.244Z,75.31
2017-12-29T02:03:20.249Z,75.49
2017-12-29T02:04:20.259Z,76.06
2017-12-29T02:05:20.269Z,76.06
2017-12-29T02:06:20.278Z,75.87
2017-12-29T02:07:20.564Z,75.87
2017-12-29T02:08:20.575Z,75.68
2017-12-29T02:09:20.308Z,75.78
2017-12-29T02:10:20.591Z,75.78
2017-12-29T02:11:20.330Z,75.87
2017-12-29T02:12:20.339Z,75.78
2017-12-29T02:13:20.628Z,75.78
2017-12-29T02:14:20.636Z,75.87
2017-12-29T02:15:20.368Z,75.78
2017-12-29T02:16:20.701Z,75.78
2017-12-29T02:17:20.666Z,76.15
2017-12-29T02:18:20.403Z,75.78
2017-12-29T02:19:20.411Z,75.68
2017-12-29T02:20:20.696Z,75.96
2017-12-29T02:21:20.708Z,75.87
2017-12-29T02:22:20.721Z,75.87
2017-12-29T02:23:20.452Z,75.87
2017-12-29T02:24:20.747Z,75.96
2017-12-29T02:25:20.748Z,76.15
2017-12-29T02:26:20.810Z,75.68
2017-12-29T02:27:20.767Z,75.78
2017-12-29T02:28:20.781Z,75.49
2017-12-29T02:29:20.788Z,75.49
2017-12-29T02:30:20.799Z,75.78
2017-12-29T02:31:20.809Z,75.49
2017-12-29T02:32:20.546Z,75.59
2017-12-29T02:33:20.833Z,74.83
2017-12-29T02:34:20.848Z,75.02
2017-12-29T02:35:20.585Z,75.11
2017-12-29T02:36:20.585Z,74.83
2017-12-29T02:37:20.600Z,74.73
2017-12-29T02:38:20.605Z,74.35
2017-12-29T02:39:20.895Z,74.26
2017-12-29T02:40:20.902Z,74.83
2017-12-29T02:41:20.638Z,74.83
2017-12-29T02:42:20.928Z,74.54
2017-12-29T02:43:20.658Z,74.54
2017-12-29T02:44:20.679Z,74.54
2017-12-29T02:45:20.953Z,74.35
2017-12-29T02:46:20.976Z,74.45
2017-12-29T02:47:20.978Z,74.35
2017-12-29T02:48:20.984Z,74.35
2017-12-29T02:49:20.720Z,74.54
2017-12-29T02:50:21.005Z,74.54
2017-12-29T02:51:21.018Z,74.73
2017-12-29T02:52:21.037Z,74.83
2017-12-29T02:53:21.037Z,74.64
2017-12-29T02:54:20.769Z,74.26
2017-12-29T02:55:21.064Z,74.26
2017-12-29T02:56:21.067Z,73.79
2017-12-29T02:57:20.802Z,73.41
2017-12-29T02:58:21.090Z,73.6
2017-12-29T02:59:21.099Z,73.97
2017-12-29T03:00:21.108Z,73.97
2017-12-29T03:01:21.121Z,73.88
2017-12-29T03:02:20.852Z,74.16
2017-12-29T03:03:21.138Z,73.79
2017-12-29T03:04:21.148Z,73.79
2017-12-29T03:05:20.887Z,73.97
2017-12-29T03:06:21.168Z,74.16
2017-12-29T03:07:20.905Z,73.88
2017-12-29T03:08:21.189Z,73.88
2017-12-29T03:09:21.207Z,73.79
2017-12-29T03:10:20.938Z,73.97
2017-12-29T03:11:20.946Z,73.97
2017-12-29T03:12:21.230Z,73.88
2017-12-29T03:13:21.239Z,73.69
2017-12-29T03:14:20.976Z,74.07
2017-12-29T03:15:20.988Z,73.97
2017-12-29T03:16:21.275Z,73.97
2017-12-29T03:17:21.008Z,73.88
2017-12-29T03:18:21.298Z,74.35
2017-12-29T03:19:21.028Z,74.64
2017-12-29T03:20:21.042Z,74.73
2017-12-29T03:21:21.331Z,74.83
2017-12-29T03:22:21.336Z,74.54
2017-12-29T03:23:21.075Z,74.45
2017-12-29T03:24:21.354Z,74.73
2017-12-29T03:25:21.365Z,74.83
2017-12-29T03:26:21.380Z,74.26
2017-12-29T03:27:21.111Z,74.45
2017-12-29T03:28:21.398Z,74.83
2017-12-29T03:29:21.406Z,74.83
2017-12-29T03:30:21.423Z,74.45
2017-12-29T03:31:21.429Z,74.54
2017-12-29T03:32:21.437Z,74.45
2017-12-29T03:33:21.172Z,74.07
2017-12-29T03:34:21.457Z,73.88
2017-12-29T03:35:21.468Z,73.41
2017-12-29T03:36:21.202Z,73.31
2017-12-29T03:37:21.216Z,73.41
2017-12-29T03:38:21.500Z,73.69
2017-12-29T03:39:21.233Z,73.79
2017-12-29T03:40:21.244Z,73.97
2017-12-29T03:41:21.255Z,73.88
2017-12-29T03:42:21.543Z,73.69
2017-12-29T03:43:21.273Z,73.97
2017-12-29T03:44:21.285Z,73.88
2017-12-29T03:45:21.572Z,74.07
2017-12-29T03:46:21.580Z,74.26
2017-12-29T03:47:21.318Z,73.97
2017-12-29T03:48:21.326Z,74.51
2017-12-29T03:49:21.338Z,74.45
2017-12-29T03:50:21.398Z,73.88
2017-12-29T03:51:21.631Z,73.88
2017-12-29T03:52:21.369Z,74.16
2017-12-29T03:53:21.652Z,73.88
2017-12-29T03:54:21.389Z,74.26
2017-12-29T03:55:21.724Z,74.51
2017-12-29T03:56:21.685Z,74.54
2017-12-29T03:57:21.695Z,74.54
2017-12-29T03:58:21.704Z,74.45
2017-12-29T03:59:21.441Z,74.26
2017-12-29T04:00:21.723Z,74.54
2017-12-29T04:01:21.462Z,74.16
2017-12-29T04:02:21.470Z,74.16
2017-12-29T04:03:21.759Z,74.35
2017-12-29T04:04:21.490Z,74.07
2017-12-29T04:05:21.552Z,74.03
2017-12-29T04:06:21.787Z,74.16
2017-12-29T04:07:21.804Z,73.97
2017-12-29T04:08:21.806Z,74.45
2017-12-29T04:09:21.542Z,73.84
2017-12-29T04:10:21.880Z,74.41
2017-12-29T04:11:21.565Z,74.54
2017-12-29T04:12:21.573Z,74.22
2017-12-29T04:13:21.857Z,74.45
2017-12-29T04:14:21.594Z,74.83
2017-12-29T04:15:21.879Z,74.54
2017-12-29T04:16:21.895Z,74.26
2017-12-29T04:17:21.899Z,74.54
2017-12-29T04:18:21.906Z,74.54
2017-12-29T04:19:21.916Z,74.45
2017-12-29T04:20:21.931Z,74.64
2017-12-29T04:21:21.666Z,74.64
2017-12-29T04:22:21.675Z,74.73
2017-12-29T04:23:21.959Z,74.45
2017-12-29T04:24:21.971Z,74.26
2017-12-29T04:25:21.707Z,74.92
2017-12-29T04:26:21.989Z,74.54
2017-12-29T04:27:22.002Z,74.64
2017-12-29T04:28:22.013Z,73.97
2017-12-29T04:29:22.020Z,74.54
2017-12-29T04:30:22.032Z,74.35
2017-12-29T04:31:22.041Z,74.35
2017-12-29T04:32:22.054Z,74.54
2017-12-29T04:33:22.064Z,74.26
2017-12-29T04:34:22.069Z,74.54
2017-12-29T04:35:21.807Z,74.45
2017-12-29T04:36:21.818Z,74.64
2017-12-29T04:37:21.828Z,74.73
2017-12-29T04:38:22.111Z,74.73
2017-12-29T04:39:22.125Z,74.26
2017-12-29T04:40:21.910Z,74.26
2017-12-29T04:41:22.142Z,74.54
2017-12-29T04:42:22.160Z,74.54
2017-12-29T04:43:22.164Z,74.64
2017-12-29T04:44:22.175Z,75.11
2017-12-29T04:45:22.184Z,75.11
2017-12-29T04:46:21.920Z,75.02
2017-12-29T04:47:21.942Z,74.92
2017-12-29T04:48:21.939Z,75.31
2017-12-29T04:49:22.224Z,74.73
2017-12-29T04:50:22.287Z,74.54
2017-12-29T04:51:22.244Z,74.54
2017-12-29T04:52:21.982Z,74.45
2017-12-29T04:53:22.268Z,74.54
2017-12-29T04:54:22.002Z,74.26
2017-12-29T04:55:22.017Z,74.73
2017-12-29T04:56:22.303Z,74.83
2017-12-29T04:57:22.035Z,74.26
2017-12-29T04:58:22.321Z,74.64
2017-12-29T04:59:22.053Z,74.35
2017-12-29T05:00:22.337Z,74.35
2017-12-29T05:01:22.349Z,74.26
2017-12-29T05:02:22.084Z,73.97
2017-12-29T05:03:22.370Z,73.6
2017-12-29T05:04:22.382Z,73.79
2017-12-29T05:05:22.438Z,73.79
2017-12-29T05:06:22.400Z,73.88
2017-12-29T05:07:22.134Z,73.88
2017-12-29T05:08:22.422Z,73.97
2017-12-29T05:09:22.155Z,74.07
2017-12-29T05:10:22.441Z,74.07
2017-12-29T05:11:22.452Z,74.45
2017-12-29T05:12:22.463Z,74.35
2017-12-29T05:13:22.198Z,74.35
2017-12-29T05:14:22.483Z,74.07
2017-12-29T05:15:22.493Z,74.07
2017-12-29T05:16:22.507Z,74.45
2017-12-29T05:17:22.240Z,73.97
2017-12-29T05:18:22.523Z,74.26
2017-12-29T05:19:22.557Z,74.45
2017-12-29T05:20:22.545Z,73.88
2017-12-29T05:21:22.572Z,74.26
2017-12-29T05:22:22.291Z,74.45
2017-12-29T05:23:22.573Z,74.54
2017-12-29T05:24:22.317Z,74.54
2017-12-29T05:25:22.599Z,74.45
2017-12-29T05:26:22.607Z,74.26
2017-12-29T05:27:22.622Z,74.45
2017-12-29T05:28:22.627Z,74.83
2017-12-29T05:29:22.362Z,74.54
2017-12-29T05:30:22.655Z,74.64
2017-12-29T05:31:22.819Z,74.73
2017-12-29T05:32:22.669Z,74.64
2017-12-29T05:33:22.682Z,74.73
2017-12-29T05:34:22.690Z,74.54
2017-12-29T05:35:22.701Z,74.35
2017-12-29T05:36:22.435Z,74.07
2017-12-29T05:37:22.448Z,73.88
2017-12-29T05:38:22.749Z,73.88
2017-12-29T05:39:22.744Z,73.97
2017-12-29T05:40:22.749Z,74.35
2017-12-29T05:41:22.487Z,74.07
2017-12-29T05:42:22.497Z,73.88
2017-12-29T05:43:22.781Z,73.88
2017-12-29T05:44:22.789Z,73.97
2017-12-29T05:45:22.809Z,73.88
2017-12-29T05:46:22.538Z,73.22
2017-12-29T05:47:22.829Z,73.31
2017-12-29T05:48:22.832Z,73.31
2017-12-29T05:49:22.850Z,73.31
2017-12-29T05:50:22.870Z,73.41
2017-12-29T05:51:22.865Z,73.6
2017-12-29T05:52:22.884Z,73.6
2017-12-29T05:53:22.613Z,73.31
2017-12-29T05:54:22.619Z,73.5
2017-12-29T05:55:22.907Z,73.31
2017-12-29T05:56:22.915Z,73.22
2017-12-29T05:57:22.654Z,73.22
2017-12-29T05:58:22.660Z,73.79
2017-12-29T05:59:22.779Z,73.88
2017-12-29T06:00:22.680Z,73.88
2017-12-29T06:01:22.691Z,73.6
2017-12-29T06:02:22.706Z,73.31
2017-12-29T06:03:22.991Z,73.31
2017-12-29T06:04:22.725Z,73.31
2017-12-29T06:05:23.097Z,73.41
2017-12-29T06:06:22.855Z,73.31
2017-12-29T06:07:22.930Z,73.41
2017-12-29T06:08:23.041Z,73.31
2017-12-29T06:09:23.051Z,73.41
2017-12-29T06:10:22.856Z,73.41
2017-12-29T06:11:23.120Z,73.12
2017-12-29T06:12:23.078Z,73.12
2017-12-29T06:13:22.815Z,73.31
2017-12-29T06:14:22.830Z,73.6
2017-12-29T06:15:22.838Z,73.22
2017-12-29T06:16:22.898Z,73.03
2017-12-29T06:17:23.135Z,72.74
2017-12-29T06:18:22.866Z,73.6
2017-12-29T06:19:22.878Z,73.6
2017-12-29T06:20:23.162Z,73.6
2017-12-29T06:21:22.949Z,73.5
2017-12-29T06:22:23.181Z,73.31
2017-12-29T06:23:22.917Z,73.41
2017-12-29T06:24:23.100Z,73.6
2017-12-29T06:25:23.212Z,73.79
2017-12-29T06:26:23.226Z,74.16
2017-12-29T06:27:23.242Z,73.97
2017-12-29T06:28:22.971Z,73.97
2017-12-29T06:29:22.981Z,73.97
2017-12-29T06:30:23.267Z,74.16
2017-12-29T06:31:23.275Z,73.79
2017-12-29T06:32:23.285Z,74.07
2017-12-29T06:33:23.295Z,73.69
2017-12-29T06:34:23.036Z,73.88
2017-12-29T06:35:23.041Z,74.45
2017-12-29T06:36:23.326Z,74.26
2017-12-29T06:37:23.338Z,74.45
2017-12-29T06:38:23.351Z,74.26
2017-12-29T06:39:23.081Z,74.07
2017-12-29T06:40:23.093Z,74.07
2017-12-29T06:41:23.106Z,74.07
2017-12-29T06:42:23.115Z,74.26
2017-12-29T06:43:23.400Z,73.88
2017-12-29T06:44:23.145Z,74.26
2017-12-29T06:45:23.145Z,74.07
2017-12-29T06:46:23.428Z,74.45
2017-12-29T06:47:23.166Z,73.88
2017-12-29T06:48:23.450Z,74.35
2017-12-29T06:49:23.186Z,74.26
2017-12-29T06:50:23.472Z,74.45
2017-12-29T06:51:23.207Z,74.16
2017-12-29T06:52:23.230Z,74.45
2017-12-29T06:53:23.507Z,74.26
2017-12-29T06:54:23.511Z,73.88
2017-12-29T06:55:23.246Z,74.26
2017-12-29T06:56:23.533Z,73.97
2017-12-29T06:57:23.543Z,74.07
2017-12-29T06:58:23.554Z,74.26
2017-12-29T06:59:23.638Z,74.35
2017-12-29T07:00:23.570Z,74.26
2017-12-29T07:01:23.311Z,74.35
2017-12-29T07:02:23.319Z,74.45
2017-12-29T07:03:23.608Z,74.64
2017-12-29T07:04:23.341Z,74.54
2017-12-29T07:05:23.627Z,74.45
2017-12-29T07:06:23.636Z,74.54
2017-12-29T07:07:23.371Z,74.45
2017-12-29T07:08:23.654Z,74.54
2017-12-29T07:09:23.394Z,74.45
2017-12-29T07:10:23.676Z,74.35
2017-12-29T07:11:23.412Z,74.35
2017-12-29T07:12:23.426Z,74.35
2017-12-29T07:13:23.710Z,74.45
2017-12-29T07:14:23.718Z,74.26
2017-12-29T07:15:23.453Z,74.73
2017-12-29T07:16:23.737Z,74.73
2017-12-29T07:17:23.476Z,74.83
2017-12-29T07:18:23.763Z,75.11
2017-12-29T07:19:23.775Z,75.31
2017-12-29T07:20:23.505Z,75.21
2017-12-29T07:21:23.516Z,75.11
2017-12-29T07:22:23.524Z,75.02
2017-12-29T07:23:23.811Z,75.11
2017-12-29T07:24:23.820Z,75.4
2017-12-29T07:25:23.555Z,75.49
2017-12-29T07:26:23.914Z,75.21
2017-12-29T07:27:23.855Z,75.02
2017-12-29T07:28:23.867Z,75.11
2017-12-29T07:29:23.871Z,74.83
2017-12-29T07:30:23.881Z,74.92
2017-12-29T07:31:23.892Z,74.92
2017-12-29T07:32:23.631Z,75.02
2017-12-29T07:33:23.641Z,75.31
2017-12-29T07:34:23.654Z,75.49
2017-12-29T07:35:23.657Z,75.11
2017-12-29T07:36:23.941Z,75.68
2017-12-29T07:37:23.678Z,75.59
2017-12-29T07:38:23.963Z,75.4
2017-12-29T07:39:23.700Z,75.4
2017-12-29T07:40:23.708Z,75.31
2017-12-29T07:41:23.996Z,75.4
2017-12-29T07:42:23.732Z,75.78
2017-12-29T07:43:23.740Z,75.59
2017-12-29T07:44:24.025Z,75.4
2017-12-29T07:45:23.762Z,75.78
2017-12-29T07:46:23.773Z,75.78
2017-12-29T07:47:23.781Z,75.59
2017-12-29T07:48:23.792Z,75.68
2017-12-29T07:49:23.802Z,76.15
2017-12-29T07:50:24.138Z,75.78
2017-12-29T07:51:24.097Z,75.87
2017-12-29T07:52:24.162Z,75.87
2017-12-29T07:53:24.120Z,75.87
2017-12-29T07:54:24.128Z,75.78
2017-12-29T07:55:23.865Z,75.87
2017-12-29T07:56:24.149Z,76.44
2017-12-29T07:57:23.886Z,76.15
2017-12-29T07:58:23.898Z,76.44
2017-12-29T07:59:24.181Z,76.54
2017-12-29T08:00:23.914Z,76.25
2017-12-29T08:01:23.927Z,76.73
2017-12-29T08:02:24.210Z,76.82
2017-12-29T08:03:23.946Z,76.54
2017-12-29T08:04:24.231Z,76.34
2017-12-29T08:05:24.246Z,76.73
2017-12-29T08:06:23.976Z,76.34
2017-12-29T08:07:23.985Z,76.54
2017-12-29T08:08:24.001Z,76.54
2017-12-29T08:09:24.005Z,76.54
2017-12-29T08:10:24.017Z,76.54
2017-12-29T08:11:24.304Z,76.63
2017-12-29T08:12:24.040Z,76.25
2017-12-29T08:13:24.049Z,76.34
2017-12-29T08:14:24.340Z,77.11
2017-12-29T08:15:24.071Z,76.92
2017-12-29T08:16:24.358Z,77.01
2017-12-29T08:17:24.414Z,76.63
2017-12-29T08:18:24.101Z,76.63
2017-12-29T08:19:24.109Z,77.01
2017-12-29T08:20:24.448Z,77.48
2017-12-29T08:21:24.412Z,77.58
2017-12-29T08:22:24.142Z,77.86
2017-12-29T08:23:24.152Z,77.58
2017-12-29T08:24:24.163Z,77.77
2017-12-29T08:25:24.172Z,77.86
2017-12-29T08:26:24.460Z,77.77
2017-12-29T08:27:24.474Z,78.05
2017-12-29T08:28:24.475Z,77.96
2017-12-29T08:29:24.592Z,77.86
2017-12-29T08:30:24.225Z,77.77
2017-12-29T08:31:24.250Z,78.24
2017-12-29T08:32:24.520Z,78.15
2017-12-29T08:33:24.577Z,77.86
2017-12-29T08:34:24.564Z,78.43
2017-12-29T08:35:24.549Z,78.38
2017-12-29T08:36:24.284Z,78.09
2017-12-29T08:37:24.297Z,78.09
2017-12-29T08:38:24.387Z,78.28
2017-12-29T08:39:24.322Z,78.09
2017-12-29T08:40:24.331Z,78.28
2017-12-29T08:41:24.619Z,78.28
2017-12-29T08:42:24.623Z,78.09
2017-12-29T08:43:24.633Z,78.09
2017-12-29T08:44:24.370Z,78.28
2017-12-29T08:45:24.381Z,78.38
2017-12-29T08:46:24.678Z,77.9
2017-12-29T08:47:24.405Z,77.9
2017-12-29T08:48:24.684Z,78.28
2017-12-29T08:49:24.698Z,78.09
2017-12-29T08:50:24.716Z,78.28
2017-12-29T08:51:24.444Z,78.19
2017-12-29T08:52:24.455Z,78.28
2017-12-29T08:53:24.463Z,78.09
2017-12-29T08:54:24.750Z,77.62
2017-12-29T08:55:24.763Z,77.52
2017-12-29T08:56:24.773Z,77.62
2017-12-29T08:57:24.507Z,77.71
2017-12-29T08:58:24.851Z,77.9
2017-12-29T08:59:24.810Z,77.71
2017-12-29T09:00:24.538Z,77.24
2017-12-29T09:01:24.824Z,77.33
2017-12-29T09:02:24.840Z,77.14
2017-12-29T09:03:24.844Z,77.24
2017-12-29T09:04:24.582Z,77.43
2017-12-29T09:05:24.868Z,77.14
2017-12-29T09:06:24.607Z,77.14
2017-12-29T09:07:24.890Z,77.24
2017-12-29T09:08:24.903Z,77.14
2017-12-29T09:09:24.911Z,77.14
2017-12-29T09:10:24.924Z,77.14
2017-12-29T09:11:24.655Z,77.33
2017-12-29T09:12:24.667Z,77.14
2017-12-29T09:13:24.952Z,77.05
2017-12-29T09:14:24.689Z,76.86
2017-12-29T09:15:24.701Z,76.57
2017-12-29T09:16:24.988Z,77.05
2017-12-29T09:17:24.724Z,76.76
2017-12-29T09:18:24.783Z,76.67
2017-12-29T09:19:24.743Z,76.39
2017-12-29T09:20:24.754Z,76.95
2017-12-29T09:21:24.765Z,76.29
2017-12-29T09:22:24.775Z,76.29
2017-12-29T09:23:25.115Z,75.62
2017-12-29T09:24:24.800Z,75.91
2017-12-29T09:25:24.809Z,76.01
2017-12-29T09:26:24.822Z,76.01
2017-12-29T09:27:25.208Z,75.81
2017-12-29T09:28:24.840Z,76.01
2017-12-29T09:29:25.126Z,76.1
2017-12-29T09:30:25.138Z,76.1
2017-12-29T09:31:24.874Z,76.2
2017-12-29T09:32:25.162Z,75.62
2017-12-29T09:33:24.948Z,75.72
2017-12-29T09:34:25.184Z,75.09
2017-12-29T09:35:24.917Z,75.15
2017-12-29T09:36:25.225Z,75.05
2017-12-29T09:37:25.213Z,74.87
2017-12-29T09:38:25.232Z,75.34
2017-12-29T09:39:25.268Z,74.77
2017-12-29T09:40:25.287Z,74.3
2017-12-29T09:41:25.262Z,74.62
2017-12-29T09:42:25.000Z,74.68
2017-12-29T09:43:25.333Z,74.58
2017-12-29T09:44:25.291Z,74.11
2017-12-29T09:45:25.308Z,73.92
2017-12-29T09:46:25.313Z,74.39
2017-12-29T09:47:25.325Z,74.39
2017-12-29T09:48:25.389Z,74.2
2017-12-29T09:49:25.072Z,73.92
2017-12-29T09:50:25.360Z,73.25
2017-12-29T09:51:25.093Z,73.44
2017-12-29T09:52:25.385Z,73.54
2017-12-29T09:53:25.402Z,73.63
2017-12-29T09:54:25.126Z,73.76
2017-12-29T09:55:25.142Z,73.67
2017-12-29T09:56:25.423Z,73.25
2017-12-29T09:57:25.435Z,73.63
2017-12-29T09:58:25.448Z,73.54
2017-12-29T09:59:25.472Z,73.57
2017-12-29T10:00:25.192Z,73.44
2017-12-29T10:01:25.482Z,73.63
2017-12-29T10:02:25.499Z,73.35
2017-12-29T10:03:25.244Z,73.82
2017-12-29T10:04:25.515Z,73.72
2017-12-29T10:05:25.523Z,73.72
2017-12-29T10:06:25.535Z,73.82
2017-12-29T10:07:25.548Z,73.25
2017-12-29T10:08:25.585Z,73.25
2017-12-29T10:09:25.294Z,73.25
2017-12-29T10:10:25.306Z,73.25
2017-12-29T10:11:25.316Z,72.88
2017-12-29T10:12:25.328Z,72.88
2017-12-29T10:13:25.615Z,73.25
2017-12-29T10:14:25.369Z,73.63
2017-12-29T10:15:25.362Z,73.82
2017-12-29T10:16:25.776Z,73.54
2017-12-29T10:17:25.657Z,73.44
2017-12-29T10:18:25.671Z,73.07
2017-12-29T10:19:25.408Z,73.54
2017-12-29T10:20:25.692Z,73.25
2017-12-29T10:21:25.430Z,73.16
2017-12-29T10:22:25.715Z,73.07
2017-12-29T10:23:25.730Z,72.78
2017-12-29T10:24:25.463Z,73.35
2017-12-29T10:25:25.475Z,72.78
2017-12-29T10:26:25.488Z,73.44
2017-12-29T10:27:25.778Z,72.97
2017-12-29T10:28:25.782Z,72.49
2017-12-29T10:29:25.519Z,72.78
2017-12-29T10:30:25.532Z,72.68
2017-12-29T10:31:25.817Z,72.88
2017-12-29T10:32:25.554Z,72.59
2017-12-29T10:33:25.564Z,72.49
2017-12-29T10:34:25.589Z,71.83
2017-12-29T10:35:25.908Z,71.83
2017-12-29T10:36:25.597Z,72.02
2017-12-29T10:37:25.609Z,71.55
2017-12-29T10:38:25.618Z,71.55
2017-12-29T10:39:25.636Z,72.21
2017-12-29T10:40:25.641Z,71.64
2017-12-29T10:41:25.655Z,71.83
2017-12-29T10:42:25.941Z,71.45
2017-12-29T10:43:25.952Z,71.55
2017-12-29T10:44:25.686Z,71.92
2017-12-29T10:45:25.974Z,72.4
2017-12-29T10:46:25.984Z,72.81
2017-12-29T10:47:26.002Z,72.81
2017-12-29T10:48:26.007Z,73.1
2017-12-29T10:49:25.743Z,72.72
2017-12-29T10:50:26.027Z,71.86
2017-12-29T10:51:25.772Z,71.96
2017-12-29T10:52:26.059Z,72.06
2017-12-29T10:53:26.066Z,71.48
2017-12-29T10:54:26.080Z,71.3
2017-12-29T10:55:26.087Z,71.3
2017-12-29T10:56:25.821Z,71.48
2017-12-29T10:57:25.836Z,70.82
2017-12-29T10:58:25.843Z,70.54
2017-12-29T10:59:26.131Z,70.54
2017-12-29T11:00:25.866Z,70.54
2017-12-29T11:01:25.950Z,70.25
2017-12-29T11:02:25.893Z,70.63
2017-12-29T11:03:25.899Z,70.35
2017-12-29T11:04:25.963Z,70.35
2017-12-29T11:05:25.922Z,70.25
2017-12-29T11:06:26.210Z,70.15
2017-12-29T11:07:26.221Z,70.15
2017-12-29T11:08:26.231Z,69.78
2017-12-29T11:09:26.312Z,70.06
2017-12-29T11:10:25.979Z,69.21
2017-12-29T11:11:25.989Z,69.21
2017-12-29T11:12:26.276Z,69.11
2017-12-29T11:13:26.287Z,69.11
2017-12-29T11:14:26.349Z,69.11
2017-12-29T11:15:26.037Z,68.92
2017-12-29T11:16:26.325Z,69.02
2017-12-29T11:17:26.332Z,68.35
2017-12-29T11:18:26.359Z,68.35
2017-12-29T11:19:26.101Z,68.44
2017-12-29T11:20:26.090Z,68.64
2017-12-29T11:21:26.102Z,68.83
2017-12-29T11:22:26.391Z,69.02
2017-12-29T11:23:26.125Z,69.02
2017-12-29T11:24:26.415Z,69.11
2017-12-29T11:25:26.422Z,69.3
2017-12-29T11:26:26.157Z,68.73
2017-12-29T11:27:26.444Z,68.07
2017-12-29T11:28:26.458Z,68.35
2017-12-29T11:29:26.193Z,68.26
2017-12-29T11:30:26.202Z,68.16
2017-12-29T11:31:26.217Z,69.02
2017-12-29T11:32:26.226Z,68.92
2017-12-29T11:33:26.512Z,69.02
2017-12-29T11:34:26.251Z,68.83
2017-12-29T11:35:26.537Z,69.02
2017-12-29T11:36:26.635Z,68.16
2017-12-29T11:37:26.634Z,68.35
2017-12-29T11:38:26.566Z,68.26
2017-12-29T11:39:26.581Z,67.5
2017-12-29T11:40:26.317Z,67.21
2017-12-29T11:41:26.606Z,67.21
2017-12-29T11:42:26.616Z,67.31
2017-12-29T11:43:26.349Z,67.5
2017-12-29T11:44:26.636Z,67.69
2017-12-29T11:45:26.373Z,67.59
2017-12-29T11:46:26.390Z,67.97
2017-12-29T11:47:26.680Z,68.64
2017-12-29T11:48:26.680Z,68.44
2017-12-29T11:49:26.420Z,68.07
2017-12-29T11:50:26.706Z,67.4
2017-12-29T11:51:26.446Z,67.31
2017-12-29T11:52:26.451Z,67.5
2017-12-29T11:53:26.462Z,67.5
2017-12-29T11:54:26.849Z,67.21
2017-12-29T11:55:26.762Z,66.64
2017-12-29T11:56:26.498Z,67.31
2017-12-29T11:57:26.784Z,66.46
2017-12-29T11:58:26.794Z,66.74
2017-12-29T11:59:26.809Z,66.17
2017-12-29T12:00:26.817Z,66.64
2017-12-29T12:01:26.554Z,65.79
2017-12-29T12:02:26.565Z,65.79
2017-12-29T12:03:26.856Z,65.79
2017-12-29T12:04:26.587Z,65.22
2017-12-29T12:05:26.874Z,65.41
2017-12-29T12:06:26.610Z,65.41
2017-12-29T12:07:26.621Z,65.22
2017-12-29T12:08:26.636Z,65.41
2017-12-29T12:09:26.921Z,65.22
2017-12-29T12:10:26.930Z,65.22
2017-12-29T12:11:26.946Z,65.5
2017-12-29T12:12:26.683Z,65.41
2017-12-29T12:13:26.691Z,65.98
2017-12-29T12:14:26.700Z,65.79
2017-12-29T12:15:26.994Z,66.36
2017-12-29T12:16:27.001Z,65.69
2017-12-29T12:17:27.011Z,65.41
2017-12-29T12:18:26.748Z,65.79
2017-12-29T12:19:26.760Z,64.37
2017-12-29T12:20:26.771Z,64.84
2017-12-29T12:21:27.055Z,65.03
2017-12-29T12:22:27.069Z,65.5
2017-12-29T12:23:26.807Z,65.79
2017-12-29T12:24:27.134Z,65.5
2017-12-29T12:25:27.104Z,65.79
2017-12-29T12:26:26.838Z,65.6
2017-12-29T12:27:27.126Z,66.27
2017-12-29T12:28:27.172Z,66.36
2017-12-29T12:29:27.146Z,66.17
2017-12-29T12:30:27.161Z,66.74
2017-12-29T12:31:26.894Z,66.08
2017-12-29T12:32:27.182Z,66.27
2017-12-29T12:33:27.193Z,65.98
2017-12-29T12:34:26.930Z,65.79
2017-12-29T12:35:26.943Z,66.36
2017-12-29T12:36:27.227Z,66.17
2017-12-29T12:37:27.237Z,66.27
2017-12-29T12:38:27.255Z,66.3
2017-12-29T12:39:27.263Z,66.46
2017-12-29T12:40:27.274Z,66.2
2017-12-29T12:41:27.285Z,66.11
2017-12-29T12:42:27.023Z,65.54
2017-12-29T12:43:27.044Z,65.54
2017-12-29T12:44:27.046Z,65.54
2017-12-29T12:45:27.333Z,65.92
2017-12-29T12:46:27.349Z,66.49
2017-12-29T12:47:27.357Z,66.49
2017-12-29T12:48:27.089Z,66.11
2017-12-29T12:49:27.102Z,66.77
2017-12-29T12:50:27.114Z,66.58
2017-12-29T12:51:27.400Z,66.3
2017-12-29T12:52:27.137Z,66.2
2017-12-29T12:53:27.149Z,66.2
2017-12-29T12:54:27.159Z,66.49